KGPM

Grand Prairie Municipal Airport

Grand Prairie, Texas, USA
METAR KGPM 182050Z 24006KT 10SM SKC 38/17 A2991
Observed Flight Rules
Aug-18 @ 20:50 UTC (an hour ago) Visual Flight Rules
Wind Visibility Clouds
240° at 6 knots 10 miles
  • Clear skies
Temperatures Readings
Current 38°C / 100°F
Dewpoint 17°C / 63°F
Humidity 29%
Altimeter 29.91" Hg
Pressure 1013 hPa
Elevation 180
METAR KGPM 182050Z 24006KT 10SM SKC 38/17 A2991
Observed Flight Rules
Aug-18 @ 20:50 UTC
(an hour ago)
VFR
Wind Visibility
240° at 6 knots 10 miles
Clouds
  • Clear skies
Temperature Dewpoint
38°C / 100°F 17°C / 63°F
Humidity Altimeter Pressure
29% 29.91" Hg 1013 hPa